Time;durP1;ratioP1;P1;durP2;ratioP2;P2;SDS_P1;SDS_P2;PMS_P1;PMS_P2;Temp;Humidity;BMP_temperature;BMP_pressure;BME280_temperature;BME280_humidity;BME280_pressure;Samples;Min_cycle;Max_cycle;Signal;HPM_P1;HPM_P2
2022/04/07 00:02:10;;;;;;;;;;;;;;;;;;5034732;28;20273;-73
2022/04/07 00:04:36;;;;;;;;;;;;;;;;;;5034514;28;19917;-73
2022/04/07 00:07:02;;;;;;;;;;;;;;;;;;5034585;28;19917;-73
2022/04/07 00:09:27;;;;;;;;;;;;;;;;;;5049547;28;19923;-73
2022/04/07 00:11:53;;;;;;;;;;;;;;;;;;5034319;28;20289;-73
2022/04/07 00:14:19;;;;;;;;;;;;;;;;;;5034536;28;19921;-73
2022/04/07 00:16:45;;;;;;;;;;;;;;;;;;5049667;28;19913;-75
2022/04/07 00:19:11;;;;;;;;;;;;;;;;;;5034372;28;19969;-72
2022/04/07 00:21:38;;;;;;;;;;;;;;;;;;5049280;28;19920;-72
2022/04/07 00:24:04;;;;;;;;;;;;;;;;;;5034602;28;20280;-73
2022/04/07 00:26:30;;;;;;;;;;;;;;;;;;5049334;28;19909;-73
2022/04/07 00:28:57;;;;;;;;;;;;;;;;;;5049654;28;20292;-73
2022/04/07 00:31:23;;;;;;;;;;;;;;;;;;5048705;28;20396;-73
2022/04/07 00:33:49;;;;;;;;;;;;;;;;;;5034061;28;19936;-74
2022/04/07 00:36:15;;;;;;;;;;;;;;;;;;5049173;28;20284;-73
2022/04/07 00:38:41;;;;;;;;;;;;;;;;;;5033700;28;20376;-73
2022/04/07 00:41:06;;;;;;;;;;;;;;;;;;5049120;28;19913;-73
2022/04/07 00:43:32;;;;;;;;;;;;;;;;;;5049101;28;19917;-73
2022/04/07 00:45:58;;;;;;;;;;;;;;;;;;5048950;28;19920;-73
2022/04/07 00:48:24;;;;;;;;;;;;;;;;;;5033761;28;19918;-73
2022/04/07 00:50:50;;;;;;;;;;;;;;;;;;5049020;28;19909;-73
2022/04/07 00:53:17;;;;;;;;;;;;;;;;;;5033638;28;19935;-74
2022/04/07 00:55:43;;;;;;;;;;;;;;;;;;5033653;28;20361;-73
2022/04/07 00:58:09;;;;;;;;;;;;;;;;;;5033236;28;19924;-74
2022/04/07 01:00:34;;;;;;;;;;;;;;;;;;5048885;28;19910;-73
2022/04/07 01:03:00;;;;;;;;;;;;;;;;;;5033354;28;19913;-74
2022/04/07 01:05:26;;;;;;;;;;;;;;;;;;5048790;28;19931;-73
2022/04/07 01:07:52;;;;;;;;;;;;;;;;;;5033472;28;19905;-74
2022/04/07 01:10:18;;;;;;;;;;;;;;;;;;5032993;28;20401;-74
2022/04/07 01:12:44;;;;;;;;;;;;;;;;;;5048572;28;19945;-74
2022/04/07 01:15:10;;;;;;;;;;;;;;;;;;5033738;28;20258;-73
2022/04/07 01:17:36;;;;;;;;;;;;;;;;;;5048405;28;19955;-73
2022/04/07 01:20:02;;;;;;;;;;;;;;;;;;5033516;28;19921;-75
2022/04/07 01:22:28;;;;;;;;;;;;;;;;;;5033031;28;20458;-73
2022/04/07 01:24:54;;;;;;;;;;;;;;;;;;5033443;28;19918;-73
2022/04/07 01:27:20;;;;;;;;;;;;;;;;;;5048101;28;19920;-73
2022/04/07 01:29:46;;;;;;;;;;;;;;;;;;5033339;28;19917;-73
2022/04/07 01:32:12;;;;;;;;;;;;;;;;;;5048030;28;20340;-73
2022/04/07 01:34:39;;;;;;;;;;;;;;;;;;5032807;28;20325;-73
2022/04/07 01:37:04;;;;;;;;;;;;;;;;;;5048095;28;19916;-73
2022/04/07 01:39:30;;;;;;;;;;;;;;;;;;5033078;28;19925;-73
2022/04/07 01:41:56;;;;;;;;;;;;;;;;;;5032788;28;20366;-73
2022/04/07 01:44:22;;;;;;;;;;;;;;;;;;5031933;28;20015;-73
2022/04/07 01:46:48;;;;;;;;;;;;;;;;;;5032596;28;19913;-74
2022/04/07 01:49:14;;;;;;;;;;;;;;;;;;5047919;28;19925;-72
2022/04/07 01:51:40;;;;;;;;;;;;;;;;;;5047937;28;19909;-73
2022/04/07 01:54:11;;;;;;;;;;;;;;;;;;5047968;28;19917;-73
2022/04/07 01:56:37;;;;;;;;;;;;;;;;;;5047675;28;19996;-73
2022/04/07 01:59:03;;;;;;;;;;;;;;;;;;5047529;28;20016;-73
2022/04/07 02:01:29;;;;;;;;;;;;;;;;;;5032391;28;19909;-73
2022/04/07 02:04:02;;;;;;;;;;;;;;;;;;5109238;27;20273;-72
2022/04/07 02:06:28;;;;;;;;;;;;;;;;;;5107879;28;19912;-73
2022/04/07 02:08:54;;;;;;;;;;;;;;;;;;5109665;28;20390;-72
2022/04/07 02:11:22;;;;;;;;;;;;;;;;;;5108241;28;19913;-74
2022/04/07 02:13:48;;;;;;;;;;;;;;;;;;5109088;28;20291;-73
2022/04/07 02:16:14;;;;;;;;;;;;;;;;;;5109262;28;19916;-74
2022/04/07 02:18:40;;;;;;;;;;;;;;;;;;5109632;28;20272;-73
2022/04/07 02:21:06;;;;;;;;;;;;;;;;;;5109030;28;19958;-73
2022/04/07 02:23:40;;;;;;;;;;;;;;;;;;5109282;28;20615;-73
2022/04/07 02:26:06;;;;;;;;;;;;;;;;;;5107678;28;19912;-73
2022/04/07 02:28:32;;;;;;;;;;;;;;;;;;5107598;28;19916;-73
2022/04/07 02:30:58;;;;;;;;;;;;;;;;;;5107653;28;20287;-74
2022/04/07 02:33:24;;;;;;;;;;;;;;;;;;5109185;28;19924;-72
2022/04/07 02:35:50;;;;;;;;;;;;;;;;;;5108958;28;19961;-73
2022/04/07 02:38:16;;;;;;;;;;;;;;;;;;5107302;28;19912;-73
2022/04/07 02:40:42;;;;;;;;;;;;;;;;;;5107413;28;19965;-73
2022/04/07 02:43:08;;;;;;;;;;;;;;;;;;5108425;28;19939;-73
2022/04/07 02:45:34;;;;;;;;;;;;;;;;;;5108658;28;20010;-73
2022/04/07 02:48:00;;;;;;;;;;;;;;;;;;5108485;28;19955;-72
2022/04/07 02:50:26;;;;;;;;;;;;;;;;;;5108488;28;19918;-73
2022/04/07 02:52:52;;;;;;;;;;;;;;;;;;5107217;28;19912;-72
2022/04/07 02:55:18;;;;;;;;;;;;;;;;;;5107126;28;20367;-72
2022/04/07 02:57:43;;;;;;;;;;;;;;;;;;5108606;28;19916;-73
2022/04/07 03:00:09;;;;;;;;;;;;;;;;;;5108621;28;19912;-72
2022/04/07 03:02:35;;;;;;;;;;;;;;;;;;5108063;28;20400;-72
2022/04/07 03:05:01;;;;;;;;;;;;;;;;;;5106766;28;19908;-73
2022/04/07 03:07:27;;;;;;;;;;;;;;;;;;5108160;28;19984;-73
2022/04/07 03:09:53;;;;;;;;;;;;;;;;;;5108004;28;19908;-73
2022/04/07 03:12:19;;;;;;;;;;;;;;;;;;5106718;28;19970;-73
2022/04/07 03:14:45;;;;;;;;;;;;;;;;;;5096787;28;20003;-73
2022/04/07 03:17:11;;;;;;;;;;;;;;;;;;5094629;28;19916;-73
2022/04/07 03:19:37;;;;;;;;;;;;;;;;;;5094316;28;19912;-73
2022/04/07 03:22:03;;;;;;;;;;;;;;;;;;5094379;28;19966;-72
2022/04/07 03:24:29;;;;;;;;;;;;;;;;;;5094168;28;19919;-73
2022/04/07 03:26:55;;;;;;;;;;;;;;;;;;5094137;28;19934;-73
2022/04/07 03:29:21;;;;;;;;;;;;;;;;;;5094143;28;19913;-72
2022/04/07 03:31:47;;;;;;;;;;;;;;;;;;5094117;28;19919;-73
2022/04/07 03:34:13;;;;;;;;;;;;;;;;;;5093987;28;20139;-72
2022/04/07 03:36:39;;;;;;;;;;;;;;;;;;5093885;28;20357;-73
2022/04/07 03:39:05;;;;;;;;;;;;;;;;;;5092538;28;19916;-72
2022/04/07 03:41:31;;;;;;;;;;;;;;;;;;5093765;28;19908;-72
2022/04/07 03:43:57;;;;;;;;;;;;;;;;;;5093879;28;19916;-73
2022/04/07 03:46:23;;;;;;;;;;;;;;;;;;5092790;28;19995;-74
2022/04/07 03:48:49;;;;;;;;;;;;;;;;;;5092602;28;20061;-73
2022/04/07 03:51:15;;;;;;;;;;;;;;;;;;5092562;28;19912;-73
2022/04/07 03:53:41;;;;;;;;;;;;;;;;;;5094129;28;19923;-73
2022/04/07 03:56:07;;;;;;;;;;;;;;;;;;5092262;28;19912;-73
2022/04/07 03:58:33;;;;;;;;;;;;;;;;;;5094025;28;20038;-72
2022/04/07 04:00:59;;;;;;;;;;;;;;;;;;5093573;28;19915;-73
2022/04/07 04:03:25;;;;;;;;;;;;;;;;;;5091883;28;19924;-73
2022/04/07 04:05:50;;;;;;;;;;;;;;;;;;5092035;28;19908;-73
2022/04/07 04:08:16;;;;;;;;;;;;;;;;;;5091943;28;19942;-73
2022/04/07 04:10:42;;;;;;;;;;;;;;;;;;5092029;28;19915;-73
2022/04/07 04:13:08;;;;;;;;;;;;;;;;;;5093314;28;20367;-73
2022/04/07 04:15:34;;;;;;;;;;;;;;;;;;5093202;28;19924;-72
2022/04/07 04:18:00;;;;;;;;;;;;;;;;;;5093473;28;19920;-74
2022/04/07 04:20:26;;;;;;;;;;;;;;;;;;5093130;28;20367;-73
2022/04/07 04:22:52;;;;;;;;;;;;;;;;;;5091785;28;19927;-72
2022/04/07 04:25:18;;;;;;;;;;;;;;;;;;5090982;28;19916;-72
2022/04/07 04:27:44;;;;;;;;;;;;;;;;;;5091501;28;19927;-72
2022/04/07 04:30:10;;;;;;;;;;;;;;;;;;5092982;28;20002;-72
2022/04/07 04:32:36;;;;;;;;;;;;;;;;;;5093136;28;20432;-72
2022/04/07 04:35:01;;;;;;;;;;;;;;;;;;5092769;28;19998;-72
2022/04/07 04:37:27;;;;;;;;;;;;;;;;;;5091465;28;19920;-71
2022/04/07 04:39:53;;;;;;;;;;;;;;;;;;5092643;28;19914;-72
2022/04/07 04:42:19;;;;;;;;;;;;;;;;;;5092781;28;20023;-71
2022/04/07 04:44:46;;;;;;;;;;;;;;;;;;5092645;28;19908;-70
2022/04/07 04:47:12;;;;;;;;;;;;;;;;;;5092733;28;19920;-72
2022/04/07 04:49:38;;;;;;;;;;;;;;;;;;5092538;28;19916;-73
2022/04/07 04:52:04;;;;;;;;;;;;;;;;;;5092579;28;19920;-73
2022/04/07 04:54:30;;;;;;;;;;;;;;;;;;5092574;28;19909;-73
2022/04/07 04:56:55;;;;;;;;;;;;;;;;;;5091032;28;20276;-73
2022/04/07 04:59:21;;;;;;;;;;;;;;;;;;5092529;28;20360;-74
2022/04/07 05:01:47;;;;;;;;;;;;;;;;;;5090664;28;19908;-72
2022/04/07 05:04:13;;;;;;;;;;;;;;;;;;5092585;28;20399;-71
2022/04/07 05:06:39;;;;;;;;;;;;;;;;;;5092086;28;19908;-71
2022/04/07 05:09:05;;;;;;;;;;;;;;;;;;5092477;28;20375;-72
2022/04/07 05:11:31;;;;;;;;;;;;;;;;;;5092053;28;19912;-73
2022/04/07 05:13:57;;;;;;;;;;;;;;;;;;5092160;28;19915;-73
2022/04/07 05:16:23;;;;;;;;;;;;;;;;;;5092102;28;19912;-72
2022/04/07 05:18:49;;;;;;;;;;;;;;;;;;5092545;28;19955;-72
2022/04/07 05:21:15;;;;;;;;;;;;;;;;;;5092159;28;19920;-71
2022/04/07 05:23:40;;;;;;;;;;;;;;;;;;5090766;28;20396;-71
2022/04/07 05:26:06;;;;;;;;;;;;;;;;;;5091838;28;19930;-71
2022/04/07 05:28:32;;;;;;;;;;;;;;;;;;5092146;28;19977;-72
2022/04/07 05:30:58;;;;;;;;;;;;;;;;;;5090481;28;20399;-73
2022/04/07 05:33:25;;;;;;;;;;;;;;;;;;5092251;28;19924;-74
2022/04/07 05:35:51;;;;;;;;;;;;;;;;;;5090588;28;19908;-73
2022/04/07 05:38:17;;;;;;;;;;;;;;;;;;5091797;28;20015;-73
2022/04/07 05:40:43;;;;;;;;;;;;;;;;;;5091776;28;19990;-72
2022/04/07 05:43:08;;;;;;;;;;;;;;;;;;5090441;28;19926;-72
2022/04/07 05:45:34;;;;;;;;;;;;;;;;;;5091583;28;19923;-73
2022/04/07 05:48:00;;;;;;;;;;;;;;;;;;5091999;28;19916;-73
2022/04/07 05:50:26;;;;;;;;;;;;;;;;;;5092009;28;20374;-73
2022/04/07 05:52:52;;;;;;;;;;;;;;;;;;5090278;28;19916;-73
2022/04/07 05:55:18;;;;;;;;;;;;;;;;;;5091879;28;19931;-73
2022/04/07 05:57:44;;;;;;;;;;;;;;;;;;5091638;28;20001;-73
2022/04/07 06:00:11;;;;;;;;;;;;;;;;;;5091605;28;19908;-74
2022/04/07 06:02:37;;;;;;;;;;;;;;;;;;5090983;28;19931;-74
2022/04/07 06:05:03;;;;;;;;;;;;;;;;;;5091850;28;19912;-76
2022/04/07 06:07:29;;;;;;;;;;;;;;;;;;5091470;28;19916;-75
2022/04/07 06:09:55;;;;;;;;;;;;;;;;;;5091682;28;20299;-74
2022/04/07 06:12:20;;;;;;;;;;;;;;;;;;5089892;28;19959;-75
2022/04/07 06:14:46;;;;;;;;;;;;;;;;;;5090311;28;20280;-75
2022/04/07 06:17:12;;;;;;;;;;;;;;;;;;5091254;28;19916;-75
2022/04/07 06:19:38;;;;;;;;;;;;;;;;;;5091249;28;19963;-74
2022/04/07 06:22:07;;;;;;;;;;;;;;;;;;5089722;28;19935;-74
2022/04/07 06:24:33;;;;;;;;;;;;;;;;;;5091406;28;19912;-73
2022/04/07 06:26:59;;;;;;;;;;;;;;;;;;5091074;28;19916;-72
2022/04/07 06:29:25;;;;;;;;;;;;;;;;;;5091245;28;20465;-73
2022/04/07 06:31:51;;;;;;;;;;;;;;;;;;5089857;28;19924;-73
2022/04/07 06:34:17;;;;;;;;;;;;;;;;;;5091154;28;19912;-72
2022/04/07 06:36:43;;;;;;;;;;;;;;;;;;5091090;28;19915;-73
2022/04/07 06:39:09;;;;;;;;;;;;;;;;;;5091182;28;19916;-74
2022/04/07 06:41:35;;;;;;;;;;;;;;;;;;5089640;28;20287;-75
2022/04/07 06:44:00;;;;;;;;;;;;;;;;;;5089666;28;19969;-73
2022/04/07 06:46:26;;;;;;;;;;;;;;;;;;5090983;28;20267;-72
2022/04/07 06:48:52;;;;;;;;;;;;;;;;;;5092106;28;20302;-73
2022/04/07 06:51:18;;;;;;;;;;;;;;;;;;5094900;28;20021;-72
2022/04/07 06:53:44;;;;;;;;;;;;;;;;;;5093328;28;20261;-74
2022/04/07 06:56:10;;;;;;;;;;;;;;;;;;5094684;28;19957;-74
2022/04/07 06:58:36;;;;;;;;;;;;;;;;;;5093451;28;19916;-73
2022/04/07 07:01:02;;;;;;;;;;;;;;;;;;5093330;28;19981;-74
2022/04/07 07:03:28;;;;;;;;;;;;;;;;;;5092670;28;19931;-73
2022/04/07 07:05:58;;;;;;;;;;;;;;;;;;5093136;28;20380;-73
2022/04/07 07:08:24;;;;;;;;;;;;;;;;;;5094794;28;19930;-74
2022/04/07 07:10:50;;;;;;;;;;;;;;;;;;5094540;28;20441;-75
2022/04/07 07:13:22;;;;;;;;;;;;;;;;;;5093072;28;19923;-75
2022/04/07 07:15:48;;;;;;;;;;;;;;;;;;5093117;28;19908;-74
2022/04/07 07:18:14;;;;;;;;;;;;;;;;;;5093007;28;20296;-73
2022/04/07 07:20:39;;;;;;;;;;;;;;;;;;5094416;28;19908;-73
2022/04/07 07:23:06;;;;;;;;;;;;;;;;;;5094541;28;20015;-73
2022/04/07 07:25:32;;;;;;;;;;;;;;;;;;5094217;28;20269;-73
2022/04/07 07:27:57;;;;;;;;;;;;;;;;;;5092888;28;19946;-74
2022/04/07 07:30:24;;;;;;;;;;;;;;;;;;5094163;28;19991;-73
2022/04/07 07:32:51;;;;;;;;;;;;;;;;;;5092609;28;19927;-74
2022/04/07 07:35:17;;;;;;;;;;;;;;;;;;5092769;28;20367;-74
2022/04/07 07:37:43;;;;;;;;;;;;;;;;;;5094168;28;19916;-74
2022/04/07 07:40:10;;;;;;;;;;;;;;;;;;5094003;28;20272;-74
2022/04/07 07:42:36;;;;;;;;;;;;;;;;;;5092431;28;19920;-73
2022/04/07 07:45:02;;;;;;;;;;;;;;;;;;5093868;28;19997;-74
2022/04/07 07:47:28;;;;;;;;;;;;;;;;;;5094075;28;19917;-73
2022/04/07 07:49:54;;;;;;;;;;;;;;;;;;5092482;28;19912;-73
2022/04/07 07:52:20;;;;;;;;;;;;;;;;;;5093937;28;20208;-73
2022/04/07 07:54:46;;;;;;;;;;;;;;;;;;5093743;28;19908;-73
2022/04/07 07:57:12;;;;;;;;;;;;;;;;;;5092488;28;19927;-74
2022/04/07 07:59:38;;;;;;;;;;;;;;;;;;5093852;28;19915;-73
2022/04/07 08:02:04;;;;;;;;;;;;;;;;;;5092199;28;19924;-72
2022/04/07 08:04:30;;;;;;;;;;;;;;;;;;5093469;28;19909;-73
2022/04/07 08:06:56;;;;;;;;;;;;;;;;;;5092426;28;19922;-73
2022/04/07 08:09:22;;;;;;;;;;;;;;;;;;5092010;28;19908;-73
2022/04/07 08:11:47;;;;;;;;;;;;;;;;;;5093253;28;19908;-73
2022/04/07 08:14:13;;;;;;;;;;;;;;;;;;5092033;28;20007;-74
2022/04/07 08:16:39;;;;;;;;;;;;;;;;;;5093308;28;19908;-73
2022/04/07 08:19:05;;;;;;;;;;;;;;;;;;5091893;28;20014;-73
2022/04/07 08:21:31;;;;;;;;;;;;;;;;;;5093271;28;19960;-73
2022/04/07 08:23:57;;;;;;;;;;;;;;;;;;5093104;28;19912;-72
2022/04/07 08:26:23;;;;;;;;;;;;;;;;;;5093146;28;19916;-73
2022/04/07 08:28:49;;;;;;;;;;;;;;;;;;5093506;28;19916;-73
2022/04/07 08:31:16;;;;;;;;;;;;;;;;;;5093689;28;19964;-74
2022/04/07 08:33:42;;;;;;;;;;;;;;;;;;5093314;28;20003;-73
2022/04/07 08:36:07;;;;;;;;;;;;;;;;;;5092845;28;19916;-74
2022/04/07 08:38:33;;;;;;;;;;;;;;;;;;5093151;28;19920;-73
2022/04/07 08:40:59;;;;;;;;;;;;;;;;;;5092539;28;19953;-72
2022/04/07 08:43:25;;;;;;;;;;;;;;;;;;5092922;28;19928;-73
2022/04/07 08:45:51;;;;;;;;;;;;;;;;;;5092704;28;19918;-72
2022/04/07 08:48:17;;;;;;;;;;;;;;;;;;5092884;28;20015;-74
2022/04/07 08:50:43;;;;;;;;;;;;;;;;;;5091280;28;20340;-72
2022/04/07 08:53:09;;;;;;;;;;;;;;;;;;5091037;28;19916;-72
2022/04/07 08:55:35;;;;;;;;;;;;;;;;;;5092383;28;20003;-72
2022/04/07 08:58:01;;;;;;;;;;;;;;;;;;5092555;28;19916;-72
2022/04/07 09:00:27;;;;;;;;;;;;;;;;;;5092296;28;19934;-72
2022/04/07 09:02:53;;;;;;;;;;;;;;;;;;5092018;28;19924;-73
2022/04/07 09:05:19;;;;;;;;;;;;;;;;;;5092340;28;20002;-72
2022/04/07 09:07:45;;;;;;;;;;;;;;;;;;5092529;28;19974;-71
2022/04/07 09:10:10;;;;;;;;;;;;;;;;;;5090756;28;20376;-70
2022/04/07 09:12:38;;;;;;;;;;;;;;;;;;5090337;28;19916;-70
2022/04/07 09:15:04;;;;;;;;;;;;;;;;;;5092135;28;19965;-72
2022/04/07 09:17:30;;;;;;;;;;;;;;;;;;5092267;28;20006;-70
2022/04/07 09:19:56;;;;;;;;;;;;;;;;;;5090676;28;20256;-71
2022/04/07 09:22:22;;;;;;;;;;;;;;;;;;5092119;28;19927;-72
2022/04/07 09:24:48;;;;;;;;;;;;;;;;;;5091938;28;19908;-71
2022/04/07 09:27:14;;;;;;;;;;;;;;;;;;5090615;28;19947;-71
2022/04/07 09:29:40;;;;;;;;;;;;;;;;;;5091840;28;19912;-72
2022/04/07 09:32:06;;;;;;;;;;;;;;;;;;5092080;28;19917;-72
2022/04/07 09:34:32;;;;;;;;;;;;;;;;;;5091985;28;20002;-72
2022/04/07 09:36:57;;;;;;;;;;;;;;;;;;5090653;28;20279;-73
2022/04/07 09:39:23;;;;;;;;;;;;;;;;;;5091924;28;19908;-73
2022/04/07 09:41:49;;;;;;;;;;;;;;;;;;5090736;28;19915;-72
2022/04/07 09:44:15;;;;;;;;;;;;;;;;;;5091690;28;19912;-72
2022/04/07 09:46:41;;;;;;;;;;;;;;;;;;5090425;28;19912;-71
2022/04/07 09:49:07;;;;;;;;;;;;;;;;;;5090344;28;19919;-72
2022/04/07 09:51:33;;;;;;;;;;;;;;;;;;5091532;28;19957;-73
2022/04/07 09:53:59;;;;;;;;;;;;;;;;;;5091805;28;20360;-73
2022/04/07 09:56:25;;;;;;;;;;;;;;;;;;5091562;28;19912;-72
2022/04/07 09:58:51;;;;;;;;;;;;;;;;;;5090304;28;20030;-73
2022/04/07 10:01:17;;;;;;;;;;;;;;;;;;5091410;28;20007;-73
2022/04/07 10:03:43;;;;;;;;;;;;;;;;;;5091188;28;19928;-73
2022/04/07 10:06:09;;;;;;;;;;;;;;;;;;5090420;28;20008;-73
2022/04/07 10:08:35;;;;;;;;;;;;;;;;;;5091806;28;19959;-71
2022/04/07 10:11:01;;;;;;;;;;;;;;;;;;5091303;28;20012;-73
2022/04/07 10:13:27;;;;;;;;;;;;;;;;;;5091782;28;19917;-71
2022/04/07 10:15:53;;;;;;;;;;;;;;;;;;5089835;28;19915;-72
2022/04/07 10:18:19;;;;;;;;;;;;;;;;;;5091163;28;20306;-73
2022/04/07 10:20:45;;;;;;;;;;;;;;;;;;5091160;28;20007;-72
2022/04/07 10:23:11;;;;;;;;;;;;;;;;;;5089896;28;20351;-72
2022/04/07 10:25:38;;;;;;;;;;;;;;;;;;5093247;28;19916;-72
2022/04/07 10:28:03;;;;;;;;;;;;;;;;;;5095538;28;19923;-72
2022/04/07 10:30:30;;;;;;;;;;;;;;;;;;5095337;28;20302;-73
2022/04/07 10:32:58;;;;;;;;;;;;;;;;;;5095847;28;19916;-73
2022/04/07 10:35:24;;;;;;;;;;;;;;;;;;5095484;28;20001;-73
2022/04/07 10:37:50;;;;;;;;;;;;;;;;;;5095556;28;20005;-73
2022/04/07 10:40:16;;;;;;;;;;;;;;;;;;5095167;28;19919;-73
2022/04/07 10:42:42;;;;;;;;;;;;;;;;;;5095393;28;19920;-72
2022/04/07 10:45:09;;;;;;;;;;;;;;;;;;5093972;28;20407;-73
2022/04/07 10:47:35;;;;;;;;;;;;;;;;;;5095413;28;20039;-73
2022/04/07 10:50:01;;;;;;;;;;;;;;;;;;5093877;28;20397;-73
2022/04/07 10:52:27;;;;;;;;;;;;;;;;;;5095264;28;19917;-73
2022/04/07 10:54:53;;;;;;;;;;;;;;;;;;5093706;28;20288;-73
2022/04/07 10:57:19;;;;;;;;;;;;;;;;;;5093239;28;19923;-73
2022/04/07 10:59:44;;;;;;;;;;;;;;;;;;5094783;28;19912;-73
2022/04/07 11:02:12;;;;;;;;;;;;;;;;;;5094349;28;20273;-72
2022/04/07 11:04:38;;;;;;;;;;;;;;;;;;5093440;28;19908;-72
2022/04/07 11:07:04;;;;;;;;;;;;;;;;;;5093240;28;20007;-72
2022/04/07 11:09:30;;;;;;;;;;;;;;;;;;5094648;28;19958;-72
2022/04/07 11:11:56;;;;;;;;;;;;;;;;;;5094541;28;19920;-72
2022/04/07 11:14:22;;;;;;;;;;;;;;;;;;5093130;28;19912;-74
2022/04/07 11:16:48;;;;;;;;;;;;;;;;;;5092937;28;19908;-74
2022/04/07 11:19:15;;;;;;;;;;;;;;;;;;5093502;28;19955;-72
2022/04/07 11:21:41;;;;;;;;;;;;;;;;;;5093026;28;19908;-72
2022/04/07 11:24:07;;;;;;;;;;;;;;;;;;5094325;28;19912;-72
2022/04/07 11:26:33;;;;;;;;;;;;;;;;;;5094356;28;20304;-73
2022/04/07 11:28:59;;;;;;;;;;;;;;;;;;5094226;28;20334;-72
2022/04/07 11:31:25;;;;;;;;;;;;;;;;;;5094037;28;19919;-72
2022/04/07 11:33:51;;;;;;;;;;;;;;;;;;5093903;28;20275;-72
2022/04/07 11:36:17;;;;;;;;;;;;;;;;;;5093851;28;19908;-74
2022/04/07 11:38:43;;;;;;;;;;;;;;;;;;5092826;28;20439;-74
2022/04/07 11:41:09;;;;;;;;;;;;;;;;;;5094213;28;19939;-72
2022/04/07 11:43:35;;;;;;;;;;;;;;;;;;5092952;28;20015;-71
2022/04/07 11:46:07;;;;;;;;;;;;;;;;;;5093035;28;20347;-74
2022/04/07 11:48:33;;;;;;;;;;;;;;;;;;5094681;28;20253;-75
2022/04/07 11:51:03;;;;;;;;;;;;;;;;;;5094011;28;19915;-74
2022/04/07 11:53:29;;;;;;;;;;;;;;;;;;5093651;28;19916;-73
2022/04/07 11:55:56;;;;;;;;;;;;;;;;;;5092576;28;19912;-74
2022/04/07 11:58:22;;;;;;;;;;;;;;;;;;5092417;28;19963;-75
2022/04/07 12:00:48;;;;;;;;;;;;;;;;;;5093835;28;20308;-74
2022/04/07 12:03:14;;;;;;;;;;;;;;;;;;5091778;28;19931;-75
2022/04/07 12:05:40;;;;;;;;;;;;;;;;;;5093683;28;19930;-74
2022/04/07 12:08:05;;;;;;;;;;;;;;;;;;5092313;28;19920;-74
2022/04/07 12:10:32;;;;;;;;;;;;;;;;;;5093673;28;19912;-74
2022/04/07 12:12:58;;;;;;;;;;;;;;;;;;5092526;28;19912;-75
2022/04/07 12:15:23;;;;;;;;;;;;;;;;;;5094049;28;20313;-75
2022/04/07 12:17:49;;;;;;;;;;;;;;;;;;5093468;28;19998;-75
2022/04/07 12:20:15;;;;;;;;;;;;;;;;;;5093306;28;19924;-74
2022/04/07 12:22:41;;;;;;;;;;;;;;;;;;5092472;28;19916;-75
2022/04/07 12:25:07;;;;;;;;;;;;;;;;;;5093445;28;19922;-74
2022/04/07 12:27:33;;;;;;;;;;;;;;;;;;5092885;28;20010;-74
2022/04/07 12:29:59;;;;;;;;;;;;;;;;;;5093027;28;20003;-75
2022/04/07 12:32:26;;;;;;;;;;;;;;;;;;5091549;28;19923;-74
2022/04/07 12:34:52;;;;;;;;;;;;;;;;;;5093253;28;20002;-73
2022/04/07 12:37:18;;;;;;;;;;;;;;;;;;5091506;28;19996;-75
2022/04/07 12:39:44;;;;;;;;;;;;;;;;;;5092774;28;20356;-75
2022/04/07 12:42:10;;;;;;;;;;;;;;;;;;5091483;28;19908;-73
2022/04/07 12:44:36;;;;;;;;;;;;;;;;;;5092930;28;19977;-73
2022/04/07 12:47:04;;;;;;;;;;;;;;;;;;5090510;28;19909;-74
2022/04/07 12:49:37;;;;;;;;;;;;;;;;;;5092683;28;20348;-74
2022/04/07 12:52:03;;;;;;;;;;;;;;;;;;5092569;28;19908;-73
2022/04/07 12:54:29;;;;;;;;;;;;;;;;;;5092713;28;20003;-73
2022/04/07 12:56:58;;;;;;;;;;;;;;;;;;5092563;28;20383;-74
2022/04/07 12:59:24;;;;;;;;;;;;;;;;;;5090907;28;19974;-74
2022/04/07 13:01:50;;;;;;;;;;;;;;;;;;5090948;28;19916;-73
2022/04/07 13:04:17;;;;;;;;;;;;;;;;;;5092436;28;19973;-75
2022/04/07 13:06:43;;;;;;;;;;;;;;;;;;5092413;28;19972;-75
2022/04/07 13:09:09;;;;;;;;;;;;;;;;;;5092233;28;20367;-75
2022/04/07 13:11:35;;;;;;;;;;;;;;;;;;5090823;28;19927;-73
2022/04/07 13:14:01;;;;;;;;;;;;;;;;;;5092151;28;19916;-74
2022/04/07 13:16:27;;;;;;;;;;;;;;;;;;5090894;28;19912;-75
2022/04/07 13:18:53;;;;;;;;;;;;;;;;;;5092113;28;20310;-74
2022/04/07 13:21:19;;;;;;;;;;;;;;;;;;5092095;28;20264;-73
2022/04/07 13:23:45;;;;;;;;;;;;;;;;;;5090519;28;19920;-73
2022/04/07 13:26:11;;;;;;;;;;;;;;;;;;5090620;28;19908;-74
2022/04/07 13:28:36;;;;;;;;;;;;;;;;;;5091778;28;19936;-74
2022/04/07 13:31:03;;;;;;;;;;;;;;;;;;5092051;28;20279;-73
2022/04/07 13:33:29;;;;;;;;;;;;;;;;;;5091759;28;19952;-73
2022/04/07 13:35:55;;;;;;;;;;;;;;;;;;5090810;28;20371;-73
2022/04/07 13:38:21;;;;;;;;;;;;;;;;;;5092093;28;19904;-73
2022/04/07 13:40:49;;;;;;;;;;;;;;;;;;5092353;28;20290;-73
2022/04/07 13:43:15;;;;;;;;;;;;;;;;;;5091571;28;19923;-74
2022/04/07 13:45:44;;;;;;;;;;;;;;;;;;5092366;28;19916;-74
2022/04/07 13:48:11;;;;;;;;;;;;;;;;;;5091845;28;19908;-74
2022/04/07 13:50:37;;;;;;;;;;;;;;;;;;5092253;28;19916;-73
2022/04/07 13:53:03;;;;;;;;;;;;;;;;;;5091781;28;19972;-74
2022/04/07 13:55:30;;;;;;;;;;;;;;;;;;5090506;28;19931;-73
2022/04/07 13:57:56;;;;;;;;;;;;;;;;;;5090219;28;20291;-73
2022/04/07 14:00:22;;;;;;;;;;;;;;;;;;5091883;28;19916;-74
2022/04/07 14:02:48;;;;;;;;;;;;;;;;;;5091281;28;19926;-73
2022/04/07 14:05:14;;;;;;;;;;;;;;;;;;5090274;28;20383;-73
2022/04/07 14:07:39;;;;;;;;;;;;;;;;;;5091376;28;19912;-73
2022/04/07 14:10:06;;;;;;;;;;;;;;;;;;5091678;28;20015;-73
2022/04/07 14:12:32;;;;;;;;;;;;;;;;;;5090052;28;19954;-74
2022/04/07 14:14:58;;;;;;;;;;;;;;;;;;5091722;28;19916;-73
2022/04/07 14:17:24;;;;;;;;;;;;;;;;;;5091722;28;20007;-74
2022/04/07 14:19:51;;;;;;;;;;;;;;;;;;5090314;28;19963;-74
2022/04/07 14:22:17;;;;;;;;;;;;;;;;;;5090076;28;19908;-74
2022/04/07 14:24:43;;;;;;;;;;;;;;;;;;5091559;28;19916;-74
2022/04/07 14:27:09;;;;;;;;;;;;;;;;;;5092008;28;19934;-74
2022/04/07 14:29:35;;;;;;;;;;;;;;;;;;5090106;28;19920;-74
2022/04/07 14:32:01;;;;;;;;;;;;;;;;;;5090078;28;19954;-74
2022/04/07 14:34:27;;;;;;;;;;;;;;;;;;5091554;28;19924;-74
2022/04/07 14:36:53;;;;;;;;;;;;;;;;;;5090018;28;19908;-74
2022/04/07 14:39:20;;;;;;;;;;;;;;;;;;5091210;28;19983;-75
2022/04/07 14:41:46;;;;;;;;;;;;;;;;;;5089832;28;19943;-74
2022/04/07 14:44:11;;;;;;;;;;;;;;;;;;5091038;28;19960;-75
2022/04/07 14:46:37;;;;;;;;;;;;;;;;;;5091308;28;19908;-75
2022/04/07 14:49:03;;;;;;;;;;;;;;;;;;5089643;28;19919;-74
2022/04/07 14:51:32;;;;;;;;;;;;;;;;;;5091141;28;19916;-74
2022/04/07 14:53:58;;;;;;;;;;;;;;;;;;5089665;28;19917;-75
2022/04/07 14:56:24;;;;;;;;;;;;;;;;;;5091246;28;19908;-75
2022/04/07 14:58:50;;;;;;;;;;;;;;;;;;5091083;28;19908;-75
2022/04/07 15:01:16;;;;;;;;;;;;;;;;;;5089735;28;20232;-74
2022/04/07 15:03:42;;;;;;;;;;;;;;;;;;5089500;28;19924;-73
2022/04/07 15:06:08;;;;;;;;;;;;;;;;;;5089654;28;20325;-73
2022/04/07 15:08:34;;;;;;;;;;;;;;;;;;5090867;28;20280;-73
2022/04/07 15:11:00;;;;;;;;;;;;;;;;;;5093293;28;19918;-73
2022/04/07 15:13:26;;;;;;;;;;;;;;;;;;5094681;28;19999;-74
2022/04/07 15:15:52;;;;;;;;;;;;;;;;;;5093585;28;19923;-74
2022/04/07 15:18:18;;;;;;;;;;;;;;;;;;5094517;28;19955;-74
2022/04/07 15:20:45;;;;;;;;;;;;;;;;;;5092812;28;19916;-74
2022/04/07 15:23:11;;;;;;;;;;;;;;;;;;5093103;28;19916;-74
2022/04/07 15:25:38;;;;;;;;;;;;;;;;;;5092993;28;20009;-73
2022/04/07 15:28:04;;;;;;;;;;;;;;;;;;5092864;28;20003;-73
2022/04/07 15:30:30;;;;;;;;;;;;;;;;;;5094550;28;20360;-75
2022/04/07 15:32:56;;;;;;;;;;;;;;;;;;5094178;28;20080;-75
2022/04/07 15:35:22;;;;;;;;;;;;;;;;;;5094442;28;19935;-74
2022/04/07 15:37:47;;;;;;;;;;;;;;;;;;5094284;28;19995;-74
2022/04/07 15:40:13;;;;;;;;;;;;;;;;;;5094083;28;19923;-74
2022/04/07 15:42:39;;;;;;;;;;;;;;;;;;5092531;28;19939;-73
2022/04/07 15:45:05;;;;;;;;;;;;;;;;;;5094220;28;20013;-74
2022/04/07 15:47:31;;;;;;;;;;;;;;;;;;5094077;28;19919;-74
2022/04/07 15:49:57;;;;;;;;;;;;;;;;;;5092565;28;20007;-74
2022/04/07 15:52:23;;;;;;;;;;;;;;;;;;5093888;28;19912;-74
2022/04/07 15:54:49;;;;;;;;;;;;;;;;;;5093963;28;19939;-74
2022/04/07 15:57:15;;;;;;;;;;;;;;;;;;5092440;28;20383;-74
2022/04/07 15:59:43;;;;;;;;;;;;;;;;;;5092442;28;19912;-74
2022/04/07 16:02:09;;;;;;;;;;;;;;;;;;5091840;28;20435;-74
2022/04/07 16:04:35;;;;;;;;;;;;;;;;;;5093728;28;20022;-75
2022/04/07 16:07:01;;;;;;;;;;;;;;;;;;5092223;28;19908;-75
2022/04/07 16:09:29;;;;;;;;;;;;;;;;;;5092249;28;19916;-75
2022/04/07 16:11:55;;;;;;;;;;;;;;;;;;5091992;28;19991;-74
2022/04/07 16:14:21;;;;;;;;;;;;;;;;;;5092233;28;20442;-74
2022/04/07 16:16:48;;;;;;;;;;;;;;;;;;5092039;28;19999;-73
2022/04/07 16:19:14;;;;;;;;;;;;;;;;;;5092083;28;19951;-74
2022/04/07 16:21:40;;;;;;;;;;;;;;;;;;5093136;28;19915;-74
2022/04/07 16:24:06;;;;;;;;;;;;;;;;;;5093276;28;20276;-75
2022/04/07 16:26:32;;;;;;;;;;;;;;;;;;5092951;28;19908;-75
2022/04/07 16:28:58;;;;;;;;;;;;;;;;;;5093185;28;19921;-74
2022/04/07 16:31:26;;;;;;;;;;;;;;;;;;5092981;28;19915;-75
2022/04/07 16:33:52;;;;;;;;;;;;;;;;;;5091471;28;19924;-75
2022/04/07 16:36:18;;;;;;;;;;;;;;;;;;5092912;28;20279;-74
2022/04/07 16:38:44;;;;;;;;;;;;;;;;;;5092962;28;19915;-75